Terminal Aerodrome Forecast
Issued by NWS Melbourne, FL

Home | Current Version | Previous Version | Text Only | Print | Product List | Glossary On
Versions: 1 2 3 4 5 6 7 8 9 10 11 12
328
FTUS42 KMLB 230827 AAA
TAFVRB
TAF AMD
KVRB 230827Z 2308/2406 13009KT P6SM VCSH SCT024 SCT029 OVC100
      TEMPO 2308/2311 3SM +SHRA BKN020 BKN025
     FM231500 12012KT P6SM VCSH SCT025 BKN050
     FM240400 12007KT P6SM SCT035 BKN200=

USA.gov is the U.S. government's official web portal to all federal, state and local government web resources and services.